Terminal Aerodrome Forecast
Issued by NWS

Home | Current Version | Previous Version | Text Only | Print | Product List | Glossary On
Versions: 1 2 3 4 5 6 7 8 9 10 11 12 13 14 15 16 17 18 19 20 21 22 23 24 25 26 27 28 29 30
000
FTUS42 KJAX 190520
TAFVQQ
TAF
KVQQ 190520Z 1906/2006 25004KT 2SM BR SCT002 BKN250
      TEMPO 1906/1910 1/2SM FG VV002
     FM191000 24003KT 1SM BR BKN002
      TEMPO 1910/1914 1/4SM FG VV001
     FM191400 27004KT 5SM BR BKN005
     FM191500 25006KT P6SM SCT020 BKN250
     FM192100 15007KT P6SM SCT050 BKN250=

USA.gov is the U.S. government's official web portal to all federal, state and local government web resources and services.